createdAt,value
2017-03-21T00:00:38.805Z,99.99
2017-03-21T00:01:38.779Z,99.99
2017-03-21T00:02:38.750Z,99.99
2017-03-21T00:03:38.985Z,99.99
2017-03-21T00:04:38.718Z,99.99
2017-03-21T00:05:38.689Z,99.99
2017-03-21T00:06:38.665Z,99.99
2017-03-21T00:07:38.642Z,99.99
2017-03-21T00:08:38.617Z,99.99
2017-03-21T00:09:38.599Z,99.99
2017-03-21T00:10:38.573Z,99.99
2017-03-21T00:11:38.585Z,99.99
2017-03-21T00:12:38.532Z,99.99
2017-03-21T00:13:38.509Z,99.99
2017-03-21T00:14:38.488Z,99.99
2017-03-21T00:15:38.464Z,99.99
2017-03-21T00:16:38.444Z,99.99
2017-03-21T00:17:38.978Z,99.99
2017-03-21T00:18:38.100Z,99.99
2017-03-21T00:19:38.375Z,99.99
2017-03-21T00:20:38.356Z,99.99
2017-03-21T00:21:38.326Z,99.99
2017-03-21T00:22:38.304Z,99.99
2017-03-21T00:23:38.284Z,99.99
2017-03-21T00:24:38.259Z,99.99
2017-03-21T00:25:38.238Z,99.99
2017-03-21T00:26:38.210Z,99.99
2017-03-21T00:27:38.197Z,99.99
2017-03-21T00:28:38.176Z,99.99
2017-03-21T00:29:38.152Z,99.99
2017-03-21T00:30:38.125Z,99.99
2017-03-21T00:31:38.099Z,99.99
2017-03-21T00:32:38.082Z,99.99
2017-03-21T00:33:38.060Z,99.99
2017-03-21T00:34:38.036Z,99.99
2017-03-21T00:35:38.014Z,99.99
2017-03-21T00:36:38.026Z,99.99
2017-03-21T00:37:37.966Z,99.99
2017-03-21T00:38:37.948Z,99.99
2017-03-21T00:39:37.922Z,99.99
2017-03-21T00:40:37.900Z,99.99
2017-03-21T00:41:37.878Z,99.99
2017-03-21T00:42:38.157Z,99.99
2017-03-21T00:43:37.836Z,99.99
2017-03-21T00:44:37.810Z,99.99
2017-03-21T00:45:37.787Z,99.99
2017-03-21T00:46:37.767Z,99.99
2017-03-21T00:47:37.753Z,99.99
2017-03-21T00:48:37.720Z,99.99
2017-03-21T00:49:37.698Z,99.99
2017-03-21T00:50:37.675Z,99.99
2017-03-21T00:51:37.651Z,99.99
2017-03-21T00:52:37.629Z,99.99
2017-03-21T00:53:37.607Z,99.99
2017-03-21T00:54:37.593Z,99.99
2017-03-21T00:55:37.558Z,99.99
2017-03-21T00:56:37.234Z,99.99
2017-03-21T00:57:37.517Z,99.99
2017-03-21T00:58:37.492Z,99.99
2017-03-21T00:59:37.471Z,99.99
2017-03-21T01:00:37.448Z,99.99
2017-03-21T01:01:37.427Z,99.99
2017-03-21T01:02:37.405Z,99.99
2017-03-21T01:03:37.087Z,99.99
2017-03-21T01:04:37.359Z,99.99
2017-03-21T01:05:37.341Z,99.99
2017-03-21T01:06:37.309Z,99.99
2017-03-21T01:07:37.293Z,99.99
2017-03-21T01:08:37.274Z,99.99
2017-03-21T01:09:37.249Z,99.99
2017-03-21T01:10:37.220Z,99.99
2017-03-21T01:11:37.201Z,99.99
2017-03-21T01:12:37.183Z,99.99
2017-03-21T01:13:37.156Z,99.99
2017-03-21T01:14:37.135Z,99.99
2017-03-21T01:15:37.112Z,99.99
2017-03-21T01:16:37.088Z,99.99
2017-03-21T01:17:37.069Z,99.99
2017-03-21T01:18:37.299Z,99.99
2017-03-21T01:19:37.018Z,99.99
2017-03-21T01:20:36.996Z,99.99
2017-03-21T01:21:36.969Z,99.99
2017-03-21T01:22:36.948Z,99.99
2017-03-21T01:23:36.931Z,99.99
2017-03-21T01:24:36.904Z,99.99
2017-03-21T01:25:36.881Z,99.99
2017-03-21T01:26:36.859Z,99.99
2017-03-21T01:27:36.844Z,99.99
2017-03-21T01:28:36.818Z,99.99
2017-03-21T01:29:36.792Z,99.99
2017-03-21T01:30:36.768Z,99.99
2017-03-21T01:31:36.755Z,99.99
2017-03-21T01:32:36.736Z,99.99
2017-03-21T01:33:36.703Z,99.99
2017-03-21T01:34:36.679Z,99.99
2017-03-21T01:35:36.661Z,99.99
2017-03-21T01:36:36.632Z,99.99
2017-03-21T01:37:36.611Z,99.99
2017-03-21T01:38:36.641Z,99.99
2017-03-21T01:39:36.567Z,99.99
2017-03-21T01:40:36.548Z,99.99
2017-03-21T01:41:36.520Z,99.99
2017-03-21T01:42:36.502Z,99.99
2017-03-21T01:43:36.480Z,99.99
2017-03-21T01:44:36.455Z,99.99
2017-03-21T01:45:36.468Z,99.99
2017-03-21T01:46:36.408Z,99.99
2017-03-21T01:47:36.437Z,99.99
2017-03-21T01:48:36.375Z,99.99
2017-03-21T01:49:36.342Z,99.99
2017-03-21T01:50:36.374Z,99.99
2017-03-21T01:51:36.297Z,99.99
2017-03-21T01:52:36.286Z,99.99
2017-03-21T01:53:36.305Z,99.99
2017-03-21T01:54:36.231Z,99.99
2017-03-21T01:55:36.254Z,99.99
2017-03-21T01:56:36.192Z,99.99
2017-03-21T01:57:36.162Z,99.99
2017-03-21T01:58:36.143Z,99.99
2017-03-21T01:59:36.121Z,99.99
2017-03-21T02:00:35.798Z,99.99
2017-03-21T02:01:36.075Z,99.99
2017-03-21T02:02:36.104Z,99.99
2017-03-21T02:03:36.033Z,99.99
2017-03-21T02:04:36.007Z,99.99
2017-03-21T02:05:35.988Z,99.99
2017-03-21T02:06:36.016Z,99.99
2017-03-21T02:07:35.948Z,99.99
2017-03-21T02:08:35.920Z,99.99
2017-03-21T02:09:35.898Z,99.99
2017-03-21T02:10:35.872Z,99.99
2017-03-21T02:11:35.901Z,99.99
2017-03-21T02:12:35.826Z,99.99
2017-03-21T02:13:35.812Z,99.99
2017-03-21T02:14:35.783Z,99.99
2017-03-21T02:15:35.757Z,99.99
2017-03-21T02:16:35.737Z,99.99
2017-03-21T02:17:35.777Z,99.99
2017-03-21T02:18:35.693Z,99.99
2017-03-21T02:19:35.670Z,99.99
2017-03-21T02:20:35.645Z,99.99
2017-03-21T02:21:35.631Z,99.99
2017-03-21T02:22:35.603Z,99.99
2017-03-21T02:23:35.593Z,99.99
2017-03-21T02:24:35.559Z,99.99
2017-03-21T02:25:35.535Z,99.99
2017-03-21T02:26:35.509Z,99.99
2017-03-21T02:27:35.488Z,99.99
2017-03-21T02:28:35.468Z,99.99
2017-03-21T02:29:35.446Z,99.99
2017-03-21T02:30:35.421Z,99.99
2017-03-21T02:31:35.397Z,99.99
2017-03-21T02:32:35.373Z,99.99
2017-03-21T02:33:35.350Z,99.99
2017-03-21T02:34:35.325Z,99.99
2017-03-21T02:35:35.305Z,99.99
2017-03-21T02:36:35.283Z,99.99
2017-03-21T02:37:35.259Z,99.99
2017-03-21T02:38:35.314Z,99.99
2017-03-21T02:39:35.218Z,99.99
2017-03-21T02:40:35.192Z,99.99
2017-03-21T02:41:35.166Z,99.99
2017-03-21T02:42:34.840Z,99.99
2017-03-21T02:43:35.124Z,99.99
2017-03-21T02:44:35.149Z,99.99
2017-03-21T02:45:35.077Z,99.99
2017-03-21T02:46:35.048Z,99.99
2017-03-21T02:47:35.031Z,99.99
2017-03-21T02:48:35.013Z,99.99
2017-03-21T02:49:34.983Z,99.99
2017-03-21T02:50:34.953Z,99.99
2017-03-21T02:51:34.936Z,99.99
2017-03-21T02:52:34.913Z,99.99
2017-03-21T02:53:34.894Z,99.99
2017-03-21T02:54:34.866Z,99.99
2017-03-21T02:55:34.849Z,99.99
2017-03-21T02:56:34.821Z,99.99
2017-03-21T02:57:34.807Z,99.99
2017-03-21T02:58:34.778Z,99.99
2017-03-21T02:59:34.750Z,99.99
2017-03-21T03:00:34.973Z,99.99
2017-03-21T03:01:34.401Z,99.99
2017-03-21T03:02:34.682Z,99.99
2017-03-21T03:03:34.658Z,99.99
2017-03-21T03:04:34.628Z,99.99
2017-03-21T03:05:34.614Z,99.99
2017-03-21T03:06:34.594Z,99.99
2017-03-21T03:07:34.567Z,99.99
2017-03-21T03:08:35.192Z,99.99
2017-03-21T03:09:34.524Z,99.99
2017-03-21T03:10:34.499Z,99.99
2017-03-21T03:11:35.074Z,99.99
2017-03-21T03:12:34.458Z,99.99
2017-03-21T03:13:34.431Z,99.99
2017-03-21T03:14:34.403Z,99.99
2017-03-21T03:15:34.386Z,99.99
2017-03-21T03:16:34.366Z,99.99
2017-03-21T03:17:34.340Z,99.99
2017-03-21T03:18:34.317Z,99.99
2017-03-21T03:19:34.289Z,99.99
2017-03-21T03:20:34.268Z,99.99
2017-03-21T03:21:34.239Z,99.99
2017-03-21T03:22:34.221Z,99.99
2017-03-21T03:23:34.200Z,99.99
2017-03-21T03:24:34.176Z,99.99
2017-03-21T03:25:34.148Z,99.99
2017-03-21T03:26:34.126Z,99.99
2017-03-21T03:27:34.105Z,99.99
2017-03-21T03:28:34.084Z,99.99
2017-03-21T03:29:34.060Z,99.99
2017-03-21T03:30:34.884Z,99.99
2017-03-21T03:31:34.009Z,99.99
2017-03-21T03:32:33.987Z,99.99
2017-03-21T03:33:33.965Z,99.99
2017-03-21T03:34:33.941Z,99.99
2017-03-21T03:35:33.919Z,99.99
2017-03-21T03:36:33.897Z,99.99
2017-03-21T03:37:33.871Z,99.99
2017-03-21T03:38:33.859Z,99.99
2017-03-21T03:39:33.824Z,99.99
2017-03-21T03:40:33.799Z,99.99
2017-03-21T03:41:33.780Z,99.99
2017-03-21T03:42:33.758Z,99.99
2017-03-21T03:43:33.733Z,99.99
2017-03-21T03:44:33.712Z,99.99
2017-03-21T03:45:33.697Z,99.99
2017-03-21T03:46:33.662Z,99.99
2017-03-21T03:47:33.650Z,99.99
2017-03-21T03:48:33.624Z,99.99
2017-03-21T03:49:33.593Z,99.99
2017-03-21T03:50:33.572Z,99.99
2017-03-21T03:51:33.545Z,99.99
2017-03-21T03:52:33.523Z,99.99
2017-03-21T03:53:33.497Z,99.99
2017-03-21T03:54:33.478Z,99.99
2017-03-21T03:55:33.450Z,99.99
2017-03-21T03:56:33.426Z,99.99
2017-03-21T03:57:33.403Z,99.99
2017-03-21T03:58:33.489Z,99.99
2017-03-21T03:59:33.355Z,99.99
2017-03-21T04:00:33.339Z,99.99
2017-03-21T04:01:33.323Z,99.99
2017-03-21T04:02:33.288Z,99.99
2017-03-21T04:03:33.268Z,99.99
2017-03-21T04:04:33.252Z,99.99
2017-03-21T04:05:33.218Z,99.99
2017-03-21T04:06:33.197Z,99.99
2017-03-21T04:07:33.180Z,99.99
2017-03-21T04:08:33.157Z,99.99
2017-03-21T04:09:33.132Z,99.99
2017-03-21T04:10:33.110Z,99.99
2017-03-21T04:11:33.084Z,99.99
2017-03-21T04:12:33.063Z,99.99
2017-03-21T04:13:33.093Z,99.99
2017-03-21T04:14:33.062Z,99.99
2017-03-21T04:15:32.991Z,99.99
2017-03-21T04:16:32.968Z,99.99
2017-03-21T04:17:32.948Z,99.99
2017-03-21T04:18:32.926Z,99.99
2017-03-21T04:19:32.951Z,99.99
2017-03-21T04:20:32.876Z,99.99
2017-03-21T04:21:32.859Z,99.99
2017-03-21T04:22:32.830Z,99.99
2017-03-21T04:23:32.505Z,99.99
2017-03-21T04:24:32.785Z,99.99
2017-03-21T04:25:32.759Z,99.99
2017-03-21T04:26:32.739Z,99.99
2017-03-21T04:27:32.764Z,99.99
2017-03-21T04:28:32.692Z,99.99
2017-03-21T04:29:32.671Z,99.99
2017-03-21T04:30:32.642Z,99.99
2017-03-21T04:31:32.621Z,99.99
2017-03-21T04:32:32.659Z,99.99
2017-03-21T04:33:32.877Z,99.99
2017-03-21T04:34:32.559Z,99.99
2017-03-21T04:35:32.537Z,99.99
2017-03-21T04:36:32.504Z,99.99
2017-03-21T04:37:32.733Z,99.99
2017-03-21T04:38:32.462Z,99.99
2017-03-21T04:39:32.435Z,99.99
2017-03-21T04:40:32.111Z,99.99
2017-03-21T04:41:32.393Z,99.99
2017-03-21T04:42:32.416Z,99.99
2017-03-21T04:43:32.343Z,99.99
2017-03-21T04:44:32.322Z,99.99
2017-03-21T04:45:32.304Z,99.99
2017-03-21T04:46:32.276Z,99.99
2017-03-21T04:47:32.257Z,99.99
2017-03-21T04:48:32.230Z,99.99
2017-03-21T04:49:32.205Z,99.99
2017-03-21T04:50:32.219Z,99.99
2017-03-21T04:51:32.160Z,99.99
2017-03-21T04:52:32.143Z,99.99
2017-03-21T04:53:32.110Z,99.99
2017-03-21T04:54:32.086Z,99.99
2017-03-21T04:55:32.077Z,99.99
2017-03-21T04:56:31.744Z,99.99
2017-03-21T04:57:32.019Z,99.99
2017-03-21T04:58:31.996Z,99.99
2017-03-21T04:59:31.979Z,99.99
2017-03-21T05:00:31.945Z,99.99
2017-03-21T05:01:31.923Z,99.99
2017-03-21T05:02:31.951Z,99.99
2017-03-21T05:03:31.878Z,99.99
2017-03-21T05:04:31.850Z,99.99
2017-03-21T05:05:31.831Z,99.99
2017-03-21T05:06:31.818Z,99.99
2017-03-21T05:07:31.787Z,99.99
2017-03-21T05:08:31.769Z,99.99
2017-03-21T05:09:31.741Z,99.99
2017-03-21T05:10:31.723Z,99.99
2017-03-21T05:11:31.695Z,99.99
2017-03-21T05:12:31.668Z,99.99
2017-03-21T05:13:31.667Z,99.99
2017-03-21T05:14:31.624Z,99.99
2017-03-21T05:15:31.627Z,99.99
2017-03-21T05:16:31.577Z,99.99
2017-03-21T05:17:31.553Z,99.99
2017-03-21T05:18:31.530Z,99.99
2017-03-21T05:19:31.502Z,99.99
2017-03-21T05:20:31.482Z,99.99
2017-03-21T05:21:31.457Z,99.99
2017-03-21T05:22:31.434Z,99.99
2017-03-21T05:23:31.418Z,99.99
2017-03-21T05:24:31.388Z,99.99
2017-03-21T05:25:31.365Z,99.99
2017-03-21T05:26:31.338Z,99.99
2017-03-21T05:27:31.319Z,99.99
2017-03-21T05:28:31.296Z,99.99
2017-03-21T05:29:31.277Z,99.99
2017-03-21T05:30:31.248Z,99.99
2017-03-21T05:31:31.225Z,99.99
2017-03-21T05:32:31.207Z,99.99
2017-03-21T05:33:31.180Z,99.99
2017-03-21T05:34:31.155Z,99.99
2017-03-21T05:35:31.134Z,99.99
2017-03-21T05:36:30.813Z,99.99
2017-03-21T05:37:31.085Z,99.99
2017-03-21T05:38:31.067Z,99.99
2017-03-21T05:39:31.047Z,99.99
2017-03-21T05:40:31.015Z,99.99
2017-03-21T05:41:31.041Z,99.99
2017-03-21T05:42:30.967Z,99.99
2017-03-21T05:43:30.950Z,99.99
2017-03-21T05:44:30.925Z,99.99
2017-03-21T05:45:30.898Z,99.99
2017-03-21T05:46:30.877Z,99.99
2017-03-21T05:47:30.901Z,99.99
2017-03-21T05:48:30.841Z,99.99
2017-03-21T05:49:30.810Z,99.99
2017-03-21T05:50:30.788Z,99.99
2017-03-21T05:51:30.759Z,99.99
2017-03-21T05:52:30.738Z,99.99
2017-03-21T05:53:30.721Z,99.99
2017-03-21T05:54:30.695Z,99.99
2017-03-21T05:55:30.665Z,99.99
2017-03-21T05:56:30.680Z,99.99
2017-03-21T05:57:30.621Z,99.99
2017-03-21T05:58:30.598Z,99.99
2017-03-21T05:59:30.575Z,99.99
2017-03-21T06:00:30.550Z,99.99
2017-03-21T06:01:30.531Z,99.99
2017-03-21T06:02:31.360Z,99.99
2017-03-21T06:03:30.485Z,99.99
2017-03-21T06:04:30.511Z,99.99
2017-03-21T06:05:30.436Z,99.99
2017-03-21T06:06:30.416Z,99.99
2017-03-21T06:07:30.391Z,99.99
2017-03-21T06:08:30.420Z,99.99
2017-03-21T06:09:30.344Z,99.99
2017-03-21T06:10:30.324Z,99.99
2017-03-21T06:11:30.299Z,99.99
2017-03-21T06:12:30.328Z,99.99
2017-03-21T06:13:30.251Z,99.99
2017-03-21T06:14:30.232Z,99.99
2017-03-21T06:15:30.211Z,99.99
2017-03-21T06:16:30.233Z,99.99
2017-03-21T06:17:30.169Z,99.99
2017-03-21T06:18:30.138Z,99.99
2017-03-21T06:19:29.821Z,99.99
2017-03-21T06:20:30.096Z,99.99
2017-03-21T06:21:30.071Z,99.99
2017-03-21T06:22:30.052Z,99.99
2017-03-21T06:23:30.028Z,99.99
2017-03-21T06:24:30.003Z,99.99
2017-03-21T06:25:29.985Z,99.99
2017-03-21T06:26:29.960Z,99.99
2017-03-21T06:27:29.994Z,99.99
2017-03-21T06:28:29.922Z,99.99
2017-03-21T06:29:29.894Z,99.99
2017-03-21T06:30:29.874Z,99.99
2017-03-21T06:31:29.848Z,99.99
2017-03-21T06:32:29.829Z,99.99
2017-03-21T06:33:29.805Z,99.99
2017-03-21T06:34:29.792Z,99.99
2017-03-21T06:35:29.767Z,99.99
2017-03-21T06:36:29.744Z,99.99
2017-03-21T06:37:29.725Z,99.99
2017-03-21T06:38:29.702Z,99.99
2017-03-21T06:39:29.381Z,99.99
2017-03-21T06:40:29.709Z,99.99
2017-03-21T06:41:29.642Z,99.99
2017-03-21T06:42:29.628Z,99.99
2017-03-21T06:43:29.594Z,99.99
2017-03-21T06:44:29.587Z,99.99
2017-03-21T06:45:29.561Z,99.99
2017-03-21T06:46:29.532Z,99.99
2017-03-21T06:47:29.506Z,99.99
2017-03-21T06:48:29.494Z,99.99
2017-03-21T06:49:29.463Z,99.99
2017-03-21T06:50:29.445Z,99.99
2017-03-21T06:51:29.430Z,99.99
2017-03-21T06:52:29.407Z,99.99
2017-03-21T06:53:29.382Z,99.99
2017-03-21T06:54:29.358Z,99.99
2017-03-21T06:55:29.587Z,99.99
2017-03-21T06:56:29.320Z,99.99
2017-03-21T06:57:29.291Z,99.99
2017-03-21T06:58:29.276Z,99.99
2017-03-21T06:59:29.249Z,99.99
2017-03-21T07:00:29.241Z,99.99
2017-03-21T07:01:29.203Z,99.99
2017-03-21T07:02:28.881Z,99.99
2017-03-21T07:03:29.418Z,99.99
2017-03-21T07:04:29.139Z,99.99
2017-03-21T07:05:29.119Z,99.99
2017-03-21T07:06:29.098Z,99.99
2017-03-21T07:07:29.080Z,99.99
2017-03-21T07:08:29.056Z,99.99
2017-03-21T07:09:29.588Z,99.99
2017-03-21T07:10:29.011Z,99.99
2017-03-21T07:11:28.991Z,99.99
2017-03-21T07:12:28.969Z,99.99
2017-03-21T07:13:28.952Z,99.99
2017-03-21T07:14:28.931Z,99.99
2017-03-21T07:15:28.902Z,99.99
2017-03-21T07:16:28.886Z,99.99
2017-03-21T07:17:28.870Z,99.99
2017-03-21T07:18:28.855Z,99.99
2017-03-21T07:19:29.067Z,99.99
2017-03-21T07:20:28.800Z,99.99
2017-03-21T07:21:28.776Z,99.99
2017-03-21T07:22:28.757Z,99.99
2017-03-21T07:23:28.736Z,99.99
2017-03-21T07:24:28.765Z,99.99
2017-03-21T07:25:28.690Z,99.99
2017-03-21T07:26:28.667Z,99.99
2017-03-21T07:27:28.654Z,99.99
2017-03-21T07:28:28.632Z,99.99
2017-03-21T07:29:28.613Z,99.99
2017-03-21T07:30:28.584Z,99.99
2017-03-21T07:31:28.613Z,99.99
2017-03-21T07:32:28.543Z,99.99
2017-03-21T07:33:28.528Z,99.99
2017-03-21T07:34:28.498Z,99.99
2017-03-21T07:35:28.475Z,99.99
2017-03-21T07:36:28.455Z,99.99
2017-03-21T07:37:28.434Z,99.99
2017-03-21T07:38:28.468Z,99.99
2017-03-21T07:39:28.394Z,99.99
2017-03-21T07:40:28.373Z,99.99
2017-03-21T07:41:28.354Z,99.99
2017-03-21T07:42:28.329Z,99.99
2017-03-21T07:43:28.313Z,99.99
2017-03-21T07:44:28.288Z,99.99
2017-03-21T07:45:28.270Z,99.99
2017-03-21T07:46:28.249Z,99.99
2017-03-21T07:47:28.225Z,99.99
2017-03-21T07:48:28.257Z,99.99
2017-03-21T07:49:28.189Z,99.99
2017-03-21T07:50:27.858Z,99.99
2017-03-21T07:51:28.137Z,99.99
2017-03-21T07:52:28.118Z,99.99
2017-03-21T07:53:28.101Z,99.99
2017-03-21T07:54:28.078Z,99.99
2017-03-21T07:55:28.058Z,99.99
2017-03-21T07:56:28.046Z,99.99
2017-03-21T07:57:28.016Z,99.99
2017-03-21T07:58:27.995Z,99.99
2017-03-21T07:59:27.976Z,99.99
2017-03-21T08:00:27.952Z,99.99
2017-03-21T08:01:27.938Z,99.99
2017-03-21T08:02:27.915Z,99.99
2017-03-21T08:03:27.901Z,99.99
2017-03-21T08:04:27.873Z,99.99
2017-03-21T08:05:27.858Z,99.99
2017-03-21T08:06:27.837Z,99.99
2017-03-21T08:07:27.817Z,99.99
2017-03-21T08:08:27.794Z,99.99
2017-03-21T08:09:27.782Z,99.99
2017-03-21T08:10:27.758Z,99.99
2017-03-21T08:11:27.738Z,99.99
2017-03-21T08:12:27.721Z,99.99
2017-03-21T08:13:27.702Z,99.99
2017-03-21T08:14:27.375Z,99.99
2017-03-21T08:15:27.660Z,99.99
2017-03-21T08:16:27.642Z,99.99
2017-03-21T08:17:27.619Z,99.99
2017-03-21T08:18:27.650Z,99.99
2017-03-21T08:19:27.629Z,99.99
2017-03-21T08:20:27.562Z,99.99
2017-03-21T08:21:27.546Z,99.99
2017-03-21T08:22:27.525Z,99.99
2017-03-21T08:23:27.502Z,99.99
2017-03-21T08:24:27.538Z,99.99
2017-03-21T08:25:27.212Z,99.99
2017-03-21T08:26:27.447Z,99.99
2017-03-21T08:27:27.477Z,99.99
2017-03-21T08:28:27.407Z,99.99
2017-03-21T08:29:27.389Z,99.99
2017-03-21T08:30:27.368Z,99.99
2017-03-21T08:31:27.354Z,99.99
2017-03-21T08:32:27.330Z,99.99
2017-03-21T08:33:27.306Z,99.99
2017-03-21T08:34:27.289Z,99.99
2017-03-21T08:35:27.268Z,99.99
2017-03-21T08:36:27.249Z,99.99
2017-03-21T08:37:27.231Z,99.99
2017-03-21T08:38:27.217Z,99.99
2017-03-21T08:39:27.196Z,99.99
2017-03-21T08:40:27.173Z,99.99
2017-03-21T08:41:27.152Z,99.99
2017-03-21T08:42:27.152Z,99.99
2017-03-21T08:43:27.120Z,99.99
2017-03-21T08:44:27.104Z,99.99
2017-03-21T08:45:27.077Z,99.99
2017-03-21T08:46:27.064Z,99.99
2017-03-21T08:47:27.046Z,99.99
2017-03-21T08:48:27.028Z,99.99
2017-03-21T08:49:27.013Z,99.99
2017-03-21T08:50:26.991Z,99.99
2017-03-21T08:51:26.972Z,99.99
2017-03-21T08:52:41.562Z,99.99
2017-03-21T08:53:26.940Z,99.99
2017-03-21T08:54:26.921Z,99.99
2017-03-21T08:55:26.913Z,99.99
2017-03-21T08:56:26.893Z,99.99
2017-03-21T08:57:26.573Z,99.99
2017-03-21T08:58:26.854Z,99.99
2017-03-21T08:59:26.846Z,99.34
2017-03-21T09:00:26.824Z,94.45
2017-03-21T09:01:26.809Z,93.39
2017-03-21T09:02:26.797Z,96.22
2017-03-21T09:03:26.788Z,98.33
2017-03-21T09:04:26.771Z,96.32
2017-03-21T09:05:26.746Z,98.67
2017-03-21T09:06:26.732Z,95.65
2017-03-21T09:07:26.718Z,94.93
2017-03-21T09:08:26.699Z,99
2017-03-21T09:09:26.684Z,99.99
2017-03-21T09:10:26.666Z,99.99
2017-03-21T09:11:26.660Z,99.99
2017-03-21T09:12:26.632Z,99.72
2017-03-21T09:13:26.621Z,99.99
2017-03-21T09:14:26.614Z,99.99
2017-03-21T09:15:26.586Z,99.62
2017-03-21T09:16:26.568Z,98.33
2017-03-21T09:17:26.555Z,99.99
2017-03-21T09:18:26.537Z,99.99
2017-03-21T09:19:26.515Z,99.99
2017-03-21T09:20:26.497Z,99.99
2017-03-21T09:21:26.480Z,99.99
2017-03-21T09:22:26.461Z,99.99
2017-03-21T09:23:26.439Z,99.99
2017-03-21T09:24:26.434Z,99.99
2017-03-21T09:25:26.405Z,99.99
2017-03-21T09:26:26.434Z,99.99
2017-03-21T09:27:27.924Z,99.99
2017-03-21T09:28:26.348Z,99.99
2017-03-21T09:29:26.334Z,99.99
2017-03-21T09:30:26.339Z,99.99
2017-03-21T09:31:26.293Z,99.99
2017-03-21T09:32:26.276Z,99.99
2017-03-21T09:33:26.253Z,99.99
2017-03-21T09:34:26.257Z,99.99
2017-03-21T09:35:26.217Z,99.99
2017-03-21T09:36:26.247Z,99.99
2017-03-21T09:37:26.174Z,99.99
2017-03-21T09:38:26.155Z,99.99
2017-03-21T09:39:26.189Z,99.99
2017-03-21T09:40:26.169Z,99.99
2017-03-21T09:41:26.095Z,99.99
2017-03-21T09:42:26.130Z,99.99
2017-03-21T09:43:26.064Z,99.99
2017-03-21T09:44:26.089Z,99.99
2017-03-21T09:45:26.021Z,99.99
2017-03-21T09:46:26.000Z,99.99
2017-03-21T09:47:25.985Z,99.99
2017-03-21T09:48:25.963Z,99.99
2017-03-21T09:49:25.990Z,99.99
2017-03-21T09:50:25.924Z,99.99
2017-03-21T09:51:25.903Z,99.99
2017-03-21T09:52:25.940Z,99.99
2017-03-21T09:53:25.867Z,99.99
2017-03-21T09:54:25.845Z,99.99
2017-03-21T09:55:25.822Z,99.99
2017-03-21T09:56:25.805Z,99.99
2017-03-21T09:57:25.786Z,99.99
2017-03-21T09:58:25.763Z,99.99
2017-03-21T09:59:25.741Z,99.99
2017-03-21T10:00:25.722Z,99.99
2017-03-21T10:01:25.704Z,99.99
2017-03-21T10:02:25.682Z,99.99
2017-03-21T10:03:25.659Z,99.99
2017-03-21T10:04:25.642Z,99.99
2017-03-21T10:05:25.674Z,99.99
2017-03-21T10:06:25.603Z,99.99
2017-03-21T10:07:25.583Z,99.99
2017-03-21T10:08:25.559Z,99.99
2017-03-21T10:09:25.600Z,99.99
2017-03-21T10:10:25.520Z,99.99
2017-03-21T10:11:25.754Z,99.99
2017-03-21T10:12:26.881Z,99.99
2017-03-21T10:13:25.458Z,99.99
2017-03-21T10:14:25.446Z,99.99
2017-03-21T10:15:25.424Z,99.99
2017-03-21T10:16:25.398Z,99.99
2017-03-21T10:17:25.376Z,99.99
2017-03-21T10:18:25.358Z,99.99
2017-03-21T10:19:25.343Z,99.99
2017-03-21T10:20:25.316Z,99.99
2017-03-21T10:21:25.308Z,99.99
2017-03-21T10:22:25.277Z,99.99
2017-03-21T10:23:25.261Z,99.99
2017-03-21T10:24:25.238Z,99.99
2017-03-21T10:25:25.221Z,99.99
2017-03-21T10:26:25.194Z,99.99
2017-03-21T10:27:25.227Z,99.99
2017-03-21T10:28:25.152Z,99.99
2017-03-21T10:29:25.181Z,99.99
2017-03-21T10:30:25.115Z,99.99
2017-03-21T10:31:25.092Z,99.99
2017-03-21T10:32:25.071Z,99.99
2017-03-21T10:33:25.061Z,99.99
2017-03-21T10:34:25.039Z,99.99
2017-03-21T10:35:25.041Z,99.99
2017-03-21T10:36:24.995Z,99.99
2017-03-21T10:37:24.965Z,99.99
2017-03-21T10:38:24.947Z,99.99
2017-03-21T10:39:24.922Z,99.99
2017-03-21T10:40:24.907Z,99.99
2017-03-21T10:41:24.901Z,99.99
2017-03-21T10:42:24.859Z,99.99
2017-03-21T10:43:24.844Z,99.99
2017-03-21T10:44:24.822Z,99.99
2017-03-21T10:45:24.799Z,99.99
2017-03-21T10:46:24.478Z,99.99
2017-03-21T10:47:25.014Z,99.99
2017-03-21T10:48:24.742Z,99.99
2017-03-21T10:49:24.715Z,99.99
2017-03-21T10:50:24.694Z,99.99
2017-03-21T10:51:24.676Z,99.99
2017-03-21T10:52:24.653Z,99.99
2017-03-21T10:53:24.687Z,99.99
2017-03-21T10:54:24.604Z,99.99
2017-03-21T10:55:24.584Z,99.99
2017-03-21T10:56:24.268Z,99.99
2017-03-21T10:57:24.547Z,99.99
2017-03-21T10:58:24.522Z,99.99
2017-03-21T10:59:24.502Z,99.99
2017-03-21T11:00:24.483Z,99.99
2017-03-21T11:01:24.464Z,99.99
2017-03-21T11:02:24.437Z,99.99
2017-03-21T11:03:24.120Z,99.99
2017-03-21T11:04:24.397Z,99.99
2017-03-21T11:05:24.377Z,99.99
2017-03-21T11:06:24.370Z,99.99
2017-03-21T11:07:24.339Z,99.99
2017-03-21T11:08:24.320Z,99.99
2017-03-21T11:09:24.291Z,99.99
2017-03-21T11:10:24.274Z,99.99
2017-03-21T11:11:24.252Z,99.99
2017-03-21T11:12:23.928Z,99.99
2017-03-21T11:13:24.262Z,99.99
2017-03-21T11:14:24.194Z,99.99
2017-03-21T11:15:24.167Z,99.99
2017-03-21T11:16:24.143Z,99.99
2017-03-21T11:17:24.123Z,99.99
2017-03-21T11:18:23.803Z,99.99
2017-03-21T11:19:24.084Z,99.99
2017-03-21T11:20:24.068Z,99.99
2017-03-21T11:21:24.043Z,99.99
2017-03-21T11:22:24.026Z,99.85
2017-03-21T11:23:23.747Z,98.7
2017-03-21T11:24:23.980Z,99.56
2017-03-21T11:25:23.959Z,98.65
2017-03-21T11:26:23.940Z,97.7
2017-03-21T11:27:23.946Z,95.03
2017-03-21T11:28:23.896Z,96.56
2017-03-21T11:29:23.872Z,96.32
2017-03-21T11:30:23.919Z,93.93
2017-03-21T11:31:23.828Z,91.84
2017-03-21T11:32:23.811Z,91.84
2017-03-21T11:33:23.794Z,93.27
2017-03-21T11:34:23.770Z,95.51
2017-03-21T11:35:23.800Z,95.32
2017-03-21T11:36:23.724Z,96.46
2017-03-21T11:37:23.701Z,96.36
2017-03-21T11:38:23.675Z,98.94
2017-03-21T11:39:23.664Z,99.99
2017-03-21T11:40:23.636Z,99.22
2017-03-21T11:41:23.321Z,97.99
2017-03-21T11:42:23.640Z,95.89
2017-03-21T11:43:23.573Z,97.6
2017-03-21T11:44:23.552Z,97.7
2017-03-21T11:45:23.533Z,98.18
2017-03-21T11:46:23.507Z,99.98
2017-03-21T11:47:23.484Z,97.6
2017-03-21T11:48:23.461Z,94.93
2017-03-21T11:49:23.437Z,96.75
2017-03-21T11:50:23.416Z,97.89
2017-03-21T11:51:23.400Z,98.46
2017-03-21T11:52:23.376Z,99.08
2017-03-21T11:53:23.358Z,99.46
2017-03-21T11:54:23.332Z,98.99
2017-03-21T11:55:23.307Z,99.99
2017-03-21T11:56:23.385Z,99.55
2017-03-21T11:57:23.264Z,99.99
2017-03-21T11:58:23.241Z,99.99
2017-03-21T11:59:23.223Z,99.94
2017-03-21T12:00:23.199Z,99.08
2017-03-21T12:01:23.180Z,99.99
2017-03-21T12:02:23.158Z,98.75
2017-03-21T12:03:23.131Z,95.79
2017-03-21T12:04:23.113Z,96.75
2017-03-21T12:05:23.090Z,98.08
2017-03-21T12:06:23.074Z,98.08
2017-03-21T12:07:23.049Z,96.65
2017-03-21T12:08:23.026Z,97.22
2017-03-21T12:09:23.008Z,91.5
2017-03-21T12:10:22.986Z,93.88
2017-03-21T12:11:22.966Z,94.22
2017-03-21T12:12:22.940Z,96.51
2017-03-21T12:13:22.923Z,97.85
2017-03-21T12:14:22.898Z,96.51
2017-03-21T12:15:22.880Z,91.36
2017-03-21T12:16:22.862Z,92.5
2017-03-21T12:17:22.892Z,94.7
2017-03-21T12:18:22.814Z,89.93
2017-03-21T12:19:22.794Z,92.22
2017-03-21T12:20:22.774Z,92.79
2017-03-21T12:21:22.797Z,91.74
2017-03-21T12:22:22.741Z,93.84
2017-03-21T12:23:22.717Z,96.51
2017-03-21T12:24:22.751Z,94.84
2017-03-21T12:25:22.672Z,93.51
2017-03-21T12:26:22.646Z,93.51
2017-03-21T12:27:22.628Z,94.36
2017-03-21T12:28:22.609Z,92.46
2017-03-21T12:29:22.282Z,93.88
2017-03-21T12:30:22.571Z,92.17
2017-03-21T12:31:22.541Z,92.83
2017-03-21T12:32:22.525Z,92.74
2017-03-21T12:33:22.494Z,94.07
2017-03-21T12:34:22.557Z,87.78
2017-03-21T12:35:22.460Z,87.11
2017-03-21T12:36:22.437Z,89.69
2017-03-21T12:37:22.423Z,90.73
2017-03-21T12:38:22.410Z,91.41
2017-03-21T12:39:22.377Z,92.36
2017-03-21T12:40:22.358Z,95.89
2017-03-21T12:41:22.333Z,96.84
2017-03-21T12:42:22.363Z,95.27
2017-03-21T12:43:22.292Z,92.65
2017-03-21T12:44:22.273Z,92.5
2017-03-21T12:45:22.252Z,93.07
2017-03-21T12:46:22.231Z,93.46
2017-03-21T12:47:22.210Z,92.02
2017-03-21T12:48:22.188Z,91.64
2017-03-21T12:49:22.233Z,93.36
2017-03-21T12:50:22.155Z,91.83
2017-03-21T12:51:22.127Z,93.26
2017-03-21T12:52:22.112Z,92.6
2017-03-21T12:53:22.092Z,83.14